Savage Legacy — WDH4244 — position and weather

sailwx.info

Track history (hours):
 
Tides and Currents Weather Stations Pressure Air Temp Water Temp Dewpoint Dewpoint Depression Visibility Wind Speed Wind Dir Waves Ship Positions

Savage Legacy

Owner: Savage Inland Marine, Gibson, LA. More information available from US FCC via Universal Licensing System and Coast Guard Vessel Documentation Center.

Last reported at 2017-Sep-16 12:48 UTC. Time now 2017-Sep-19 17:18 UTC.
Position N 29°45' W 095°04'.

MMSI: 367615680.

Date/timePositionNaut miles runAvg speedWind from/ knotsBaromVisibWave heightAir tempDewpointWater temp
2017-Sep-16 12:48N 29°45' W 095°04'2 3.1
2017-Sep-16 12:18N 29°44' W 095°03'0 0.8
2017-Sep-16 11:59N 29°44' W 095°03'0 0.3
2017-Sep-16 11:16N 29°44' W 095°03'3 0.1
2017-Sep-15 01:02N 29°45' W 095°06'0 0.5
2017-Sep-15 00:58N 29°45' W 095°06'  
2017-Sep-09 12:42N 29°45' W 095°04'1 5.1
2017-Sep-09 12:30N 29°44' W 095°03'0 0.0
2017-Sep-08 17:06N 29°44' W 095°03'2 5.6
2017-Sep-08 16:41N 29°43' W 095°01'1 5.4
2017-Sep-08 16:29N 29°42' W 095°00'3 6.3
2017-Sep-08 16:00N 29°40' W 094°58'4 7.0
2017-Sep-08 15:30N 29°36' W 094°57'4 7.2
2017-Sep-08 15:00N 29°33' W 094°55'78 4.7
2017-Sep-07 22:30N 30°04' W 093°32'2 3.9
2017-Sep-07 22:00N 30°04' W 093°30'2 3.5
2017-Sep-07 21:30N 30°04' W 093°28'2 3.2
2017-Sep-07 21:00N 30°04' W 093°26'1 2.9
2017-Sep-07 20:30N 30°04' W 093°25'1 3.0
2017-Sep-07 20:00N 30°04' W 093°23'1 2.6
2017-Sep-07 19:30N 30°04' W 093°21'1 3.0
2017-Sep-07 19:00N 30°05' W 093°20'2 3.2
2017-Sep-07 18:30N 30°06' W 093°19'0 0.3
2017-Sep-07 18:00N 30°06' W 093°19'0 0.1
2017-Sep-07 17:30N 30°06' W 093°19'0 0.0
2017-Sep-07 17:00N 30°06' W 093°19'0 0.0
2017-Sep-07 16:30N 30°06' W 093°19'0 0.0
2017-Sep-07 16:00N 30°06' W 093°19'0 0.0
2017-Sep-07 15:30N 30°06' W 093°19'0 0.0
2017-Sep-07 15:00N 30°06' W 093°19'0 0.0
2017-Sep-07 14:30N 30°06' W 093°19'0 0.0
2017-Sep-07 12:08N 30°06' W 093°19'0 0.0
2017-Sep-07 11:59N 30°06' W 093°19'0 0.0
2017-Sep-07 11:30N 30°06' W 093°19'0 0.0
2017-Sep-07 11:00N 30°06' W 093°19'0 0.0
2017-Sep-07 10:29N 30°06' W 093°19'0 0.0
2017-Sep-07 10:00N 30°06' W 093°19'0 0.0
2017-Sep-07 09:30N 30°06' W 093°19'0 0.0
2017-Sep-07 09:00N 30°06' W 093°19'0 0.0
2017-Sep-07 08:30N 30°06' W 093°19'0 0.0
2017-Sep-07 08:00N 30°06' W 093°19'0 0.0
2017-Sep-07 07:30N 30°06' W 093°19'0 0.0
2017-Sep-07 07:00N 30°06' W 093°19'0 0.0
2017-Sep-07 06:30N 30°06' W 093°19'0 0.0
2017-Sep-07 06:00N 30°06' W 093°19'0 0.0
2017-Sep-07 05:30N 30°06' W 093°19'0 0.0
2017-Sep-07 05:00N 30°06' W 093°19'0 0.0
2017-Sep-07 04:30N 30°06' W 093°19'0 0.0
2017-Sep-07 04:00N 30°06' W 093°19'0 0.0
2017-Sep-07 03:30N 30°06' W 093°19'0 0.0
2017-Sep-07 03:00N 30°06' W 093°19'0 0.0
2017-Sep-07 02:30N 30°06' W 093°19'0 0.0
2017-Sep-07 02:00N 30°06' W 093°19'0 0.1
2017-Sep-07 01:30N 30°06' W 093°19'0 0.0
2017-Sep-07 01:00N 30°06' W 093°19'0 0.0
2017-Sep-07 00:30N 30°06' W 093°19'0 0.0
2017-Sep-07 00:00N 30°06' W 093°19'0 0.0
2017-Sep-06 23:30N 30°06' W 093°19'0 0.0
2017-Sep-06 23:00N 30°06' W 093°19'0 0.0
2017-Sep-06 22:30N 30°06' W 093°19'0 0.0
2017-Sep-06 22:00N 30°06' W 093°19'0 0.0
2017-Sep-06 21:30N 30°06' W 093°19'0 0.0
2017-Sep-06 21:00N 30°06' W 093°19'0 0.0
2017-Sep-06 20:30N 30°06' W 093°19'0 0.0
2017-Sep-06 20:00N 30°06' W 093°19'0 0.0
2017-Sep-06 19:30N 30°06' W 093°19'0 0.4
2017-Sep-06 19:00N 30°06' W 093°19'0 0.8
2017-Sep-06 18:30N 30°06' W 093°18'1 2.4
2017-Sep-06 18:00N 30°05' W 093°19'1 2.1
2017-Sep-06 17:30N 30°05' W 093°20'0 0.0
2017-Sep-06 17:00N 30°05' W 093°20'0 0.0
2017-Sep-06 16:30N 30°05' W 093°20'0 0.0
2017-Sep-06 16:00N 30°05' W 093°20'0 0.0
2017-Sep-06 15:30N 30°05' W 093°20'0 0.0
2017-Sep-06 15:00N 30°05' W 093°20'0 0.0
2017-Sep-06 14:30N 30°05' W 093°20'0 0.0
2017-Sep-06 14:00N 30°05' W 093°20'0 0.0
2017-Sep-06 13:30N 30°05' W 093°20'0 0.0
2017-Sep-06 13:00N 30°05' W 093°20'  
Track history (hours):
 
Tides and Currents Weather Stations Pressure Air Temp Water Temp Dewpoint Dewpoint Depression Visibility Wind Speed Wind Dir Waves Ship Positions

Savage Legacy

Owner: Savage Inland Marine, Gibson, LA. More information available from US FCC via Universal Licensing System and Coast Guard Vessel Documentation Center.

Last reported at 2017-Sep-16 12:48 UTC. Time now 2017-Sep-19 17:18 UTC.
Position N 29°45' W 095°04'.

MMSI: 367615680.

Date/timePositionNaut miles runAvg speedWind from/ knotsBaromVisibWave heightAir tempDewpointWater temp
2017-Sep-16 12:48N 29°45' W 095°04'2 3.1
2017-Sep-16 12:18N 29°44' W 095°03'0 0.8
2017-Sep-16 11:59N 29°44' W 095°03'0 0.3
2017-Sep-16 11:16N 29°44' W 095°03'3 0.1
2017-Sep-15 01:02N 29°45' W 095°06'0 0.5
2017-Sep-15 00:58N 29°45' W 095°06'  
2017-Sep-09 12:42N 29°45' W 095°04'1 5.1
2017-Sep-09 12:30N 29°44' W 095°03'0 0.0
2017-Sep-08 17:06N 29°44' W 095°03'2 5.6
2017-Sep-08 16:41N 29°43' W 095°01'1 5.4
2017-Sep-08 16:29N 29°42' W 095°00'3 6.3
2017-Sep-08 16:00N 29°40' W 094°58'4 7.0
2017-Sep-08 15:30N 29°36' W 094°57'4 7.2
2017-Sep-08 15:00N 29°33' W 094°55'78 4.7
2017-Sep-07 22:30N 30°04' W 093°32'2 3.9
2017-Sep-07 22:00N 30°04' W 093°30'2 3.5
2017-Sep-07 21:30N 30°04' W 093°28'2 3.2
2017-Sep-07 21:00N 30°04' W 093°26'1 2.9
2017-Sep-07 20:30N 30°04' W 093°25'1 3.0
2017-Sep-07 20:00N 30°04' W 093°23'1 2.6
2017-Sep-07 19:30N 30°04' W 093°21'1 3.0
2017-Sep-07 19:00N 30°05' W 093°20'2 3.2
2017-Sep-07 18:30N 30°06' W 093°19'0 0.3
2017-Sep-07 18:00N 30°06' W 093°19'0 0.1
2017-Sep-07 17:30N 30°06' W 093°19'0 0.0
2017-Sep-07 17:00N 30°06' W 093°19'0 0.0
2017-Sep-07 16:30N 30°06' W 093°19'0 0.0
2017-Sep-07 16:00N 30°06' W 093°19'0 0.0
2017-Sep-07 15:30N 30°06' W 093°19'0 0.0
2017-Sep-07 15:00N 30°06' W 093°19'0 0.0
2017-Sep-07 14:30N 30°06' W 093°19'0 0.0
2017-Sep-07 12:08N 30°06' W 093°19'0 0.0
2017-Sep-07 11:59N 30°06' W 093°19'0 0.0
2017-Sep-07 11:30N 30°06' W 093°19'0 0.0
2017-Sep-07 11:00N 30°06' W 093°19'0 0.0
2017-Sep-07 10:29N 30°06' W 093°19'0 0.0
2017-Sep-07 10:00N 30°06' W 093°19'0 0.0
2017-Sep-07 09:30N 30°06' W 093°19'0 0.0
2017-Sep-07 09:00N 30°06' W 093°19'0 0.0
2017-Sep-07 08:30N 30°06' W 093°19'0 0.0
2017-Sep-07 08:00N 30°06' W 093°19'0 0.0
2017-Sep-07 07:30N 30°06' W 093°19'0 0.0
2017-Sep-07 07:00N 30°06' W 093°19'0 0.0
2017-Sep-07 06:30N 30°06' W 093°19'0 0.0
2017-Sep-07 06:00N 30°06' W 093°19'0 0.0
2017-Sep-07 05:30N 30°06' W 093°19'0 0.0
2017-Sep-07 05:00N 30°06' W 093°19'0 0.0
2017-Sep-07 04:30N 30°06' W 093°19'0 0.0
2017-Sep-07 04:00N 30°06' W 093°19'0 0.0
2017-Sep-07 03:30N 30°06' W 093°19'0 0.0
2017-Sep-07 03:00N 30°06' W 093°19'0 0.0
2017-Sep-07 02:30N 30°06' W 093°19'0 0.0
2017-Sep-07 02:00N 30°06' W 093°19'0 0.1
2017-Sep-07 01:30N 30°06' W 093°19'0 0.0
2017-Sep-07 01:00N 30°06' W 093°19'0 0.0
2017-Sep-07 00:30N 30°06' W 093°19'0 0.0
2017-Sep-07 00:00N 30°06' W 093°19'0 0.0
2017-Sep-06 23:30N 30°06' W 093°19'0 0.0
2017-Sep-06 23:00N 30°06' W 093°19'0 0.0
2017-Sep-06 22:30N 30°06' W 093°19'0 0.0
2017-Sep-06 22:00N 30°06' W 093°19'0 0.0
2017-Sep-06 21:30N 30°06' W 093°19'0 0.0
2017-Sep-06 21:00N 30°06' W 093°19'0 0.0
2017-Sep-06 20:30N 30°06' W 093°19'0 0.0
2017-Sep-06 20:00N 30°06' W 093°19'0 0.0
2017-Sep-06 19:30N 30°06' W 093°19'0 0.4
2017-Sep-06 19:00N 30°06' W 093°19'0 0.8
2017-Sep-06 18:30N 30°06' W 093°18'1 2.4
2017-Sep-06 18:00N 30°05' W 093°19'1 2.1
2017-Sep-06 17:30N 30°05' W 093°20'0 0.0
2017-Sep-06 17:00N 30°05' W 093°20'0 0.0
2017-Sep-06 16:30N 30°05' W 093°20'0 0.0
2017-Sep-06 16:00N 30°05' W 093°20'0 0.0
2017-Sep-06 15:30N 30°05' W 093°20'0 0.0
2017-Sep-06 15:00N 30°05' W 093°20'0 0.0
2017-Sep-06 14:30N 30°05' W 093°20'0 0.0
2017-Sep-06 14:00N 30°05' W 093°20'0 0.0
2017-Sep-06 13:30N 30°05' W 093°20'0 0.0
2017-Sep-06 13:00N 30°05' W 093°20'  

Dump ship's entire track history